Eddyville, Iowa
Current Conditions -  °F | °C
As of 8:35 PM on Friday 24 Oct 2014 (Local Time) from KOOA Reporting Station
Haze Haze  
Wind Chill: 60°   Ceiling: 2500
Heat Index: 60°   Visibility: 5mi
Dew Point: 58°   Wind: 5mph
Humidity: 93%   Direction: 280°W
Pressure: 29.95"   Gusts: NA
Location:  41.16°N, 92.63°W
Report Text: KOOA 250135Z AUTO 28004KT 5SM BR BKN025 16/14 A2995 RMK AO2 T01560144
Loading
Personal Weather Stations






























Interactive Weather Map
Tropical Storm Tracking
New forecast layout! Learn more

10-Day Weather Forecast

Advertisements
Track Severe Weather on mobile